Riverside, CA (92509)

9:03 AM PDT on October 23, 2014 (GMT -0700)
Indian Hills | Change Station
CLOSE
Current Station
Personal Weather Station
Location: Riverside, CA
Elevation: 1070 ft
Nearby Weather Stations

Elev 1070 ft 33.99 °N, 117.45 °W | Updated 1 minute ago

Clear
Clear
69.7 °F
Feels Like 69.7 °F
N
7.0
Wind Variable Wind from ESE
Gusts 10.0 mph

Today
High -- | Low -- °F
--% Chance of Precip.
Yesterday
High -- | Low -- °F
Precip. -- in
7:01 AM 6:06 PM
Waning Crescent, 0% visible
Pressure 29.97 in
Visibility 10.0 miles
Clouds Clear
Dew Point 42 °F
Humidity 37%
Rainfall 0.00 in
Snow Depth Not available.
UV 2 out of 12
Pollen 3.70 out of 12
Ozone Good
PM2.5 Moderate
Flu Activity Sporadic
METAR KRAL 231553Z 06003KT 10SM CLR 19/06 A3001 RMK AO2 SLP149 T01940061

More Conditions Fewer Conditions

Pressure 29.97 in
Visibility 10.0 miles
Clouds Clear
Dew Point 42 °F
Humidity 37%
Rainfall 0.00 in
Snow Depth Not available.
UV 2 out of 12
Pollen 3.70 out of 12
Ozone Good
PM2.5 Moderate
Flu Activity Sporadic
METAR KRAL 231553Z 06003KT 10SM CLR 19/06 A3001 RMK AO2 SLP149 T01940061

More Conditions Fewer Conditions

10-Day Weather Forecast

Almanac

Astronomy

Oct. 23, 2014 Rise Set
Actual Time 7:01 AM PDT 6:06 PM PDT
Civil Twilight 6:36 AM PDT 6:31 PM PDT
Nautical Twilight 6:06 AM PDT 7:00 PM PDT
Astronomical Twilight 5:37 AM PDT 7:29 PM PDT
Moon 6:46 AM PDT 6:10 PM PDT
Length of Visible Light 11h 55m
Length of Day
11h 04m
Tomorrow will be 1m 57s shorter.
Waning Crescent, 0% of the Moon is Illuminated
Today
Waning Crescent
Oct 23
New
Oct 30
First Quarter
Nov 6
Full
Nov 14
Last Quarter

Today's Extremes

State Highs State Lows

Community

WunderPhotos

Upload Photos

1,764,293 photos uploaded!

WunderBlogs® & News

By Dr. Jeff Masters
Director of Meteorology, Weather Underground
By Kari Strenfel
Meteorologist, Weather Underground
By Christopher C. Burt
Weather Historian, Weather Underground
October 23, 2014
October 23, 2014
October 23, 2014

Nearby

Air Quality

  Air Quality AQ Index Pollutant
Yesterday Moderate
PM10
Yesterday Moderate
OZONE
Current Moderate
PM2.5
Current Good
OZONE
Thursday Moderate
PM10
Thursday Moderate
OZONE
Thursday Good
CO
Thursday Good
NO2

Snow Depth

Station Depth Elevation
Virginia Lakes Ridge 0 in 9200 ft
Leavitt Lake 1 in 9400 ft
Leavitt Meadows 1 in 7200 ft
Sonora Pass 0 in 8800 ft
Summit Meadow 1 in 9122 ft

Earthquake Activity

City Distance Mag. Time & Date
No recent earthquake activity has been reported nearby.
Minimum magnitude displayed is 2.5.

Coastal Water Temperatures

Place Temperature
No Stations Reporting

Nearby Weather Stations